Aspen-Gerbaz, Colorado
Current Conditions -  °F | °C
As of 10:53 PM on Friday 24 Oct 2014 (Local Time) from KASE Reporting Station
Clear Clear  
Wind Chill: 34°   Ceiling: Unl
Heat Index: 40°   Visibility: 10mi
Dew Point: 26°   Wind: 8mph
Humidity: 58%   Direction: 190°S
Pressure: 30.43"   Gusts: NA
Location:  39.1256°N, 106.797°W
Report Text: KASE 250453Z 19007KT 10SM CLR 04/M03 A3043 RMK AO2 SLP230 T00441033
Loading
Personal Weather Stations






























Interactive Weather Map
Tropical Storm Tracking
New forecast layout! Learn more

10-Day Weather Forecast

Advertisements
Track Severe Weather on mobile